sensor_id;sensor_type;location;lat;lon;timestamp;pressure;altitude;pressure_sealevel;temperature;humidity
82262;BME280;71861;52.364;6.580;2024-03-23T04:02:02;100912.81;;;3.53;100.00
82262;BME280;71861;52.364;6.580;2024-03-23T04:04:28;100908.41;;;3.55;100.00
82262;BME280;71861;52.364;6.580;2024-03-23T04:07:02;100906.19;;;3.61;100.00
82262;BME280;71861;52.364;6.580;2024-03-23T04:09:27;100900.91;;;3.63;100.00
82262;BME280;71861;52.364;6.580;2024-03-23T04:11:53;100893.09;;;3.64;100.00
82262;BME280;71861;52.364;6.580;2024-03-23T04:14:18;100902.34;;;3.67;100.00
82262;BME280;71861;52.364;6.580;2024-03-23T04:16:44;100903.16;;;3.67;100.00
82262;BME280;71861;52.364;6.580;2024-03-23T04:19:09;100896.38;;;3.66;100.00
82262;BME280;71861;52.364;6.580;2024-03-23T04:21:36;100900.47;;;3.69;100.00
82262;BME280;71861;52.364;6.580;2024-03-23T04:24:01;100904.81;;;3.68;100.00
82262;BME280;71861;52.364;6.580;2024-03-23T04:26:26;100901.31;;;3.69;100.00
82262;BME280;71861;52.364;6.580;2024-03-23T04:28:51;100905.53;;;3.70;100.00
82262;BME280;71861;52.364;6.580;2024-03-23T04:31:17;100897.00;;;3.70;100.00
82262;BME280;71861;52.364;6.580;2024-03-23T04:33:42;100900.28;;;3.72;100.00
82262;BME280;71861;52.364;6.580;2024-03-23T04:36:08;100898.63;;;3.71;100.00
82262;BME280;71861;52.364;6.580;2024-03-23T04:38:33;100895.13;;;3.72;100.00
82262;BME280;71861;52.364;6.580;2024-03-23T04:40:59;100901.06;;;3.72;100.00
82262;BME280;71861;52.364;6.580;2024-03-23T04:43:25;100904.34;;;3.74;100.00
82262;BME280;71861;52.364;6.580;2024-03-23T04:45:51;100905.19;;;3.75;100.00
82262;BME280;71861;52.364;6.580;2024-03-23T04:48:16;100892.91;;;3.78;100.00
82262;BME280;71861;52.364;6.580;2024-03-23T04:50:41;100893.03;;;3.77;100.00
82262;BME280;71861;52.364;6.580;2024-03-23T04:53:07;100883.78;;;3.74;100.00
82262;BME280;71861;52.364;6.580;2024-03-23T04:55:32;100883.44;;;3.68;100.00
82262;BME280;71861;52.364;6.580;2024-03-23T04:57:58;100888.69;;;3.66;100.00
82262;BME280;71861;52.364;6.580;2024-03-23T05:00:23;100880.38;;;3.63;100.00
82262;BME280;71861;52.364;6.580;2024-03-23T05:02:48;100874.75;;;3.58;100.00
82262;BME280;71861;52.364;6.580;2024-03-23T05:05:14;100880.25;;;3.53;100.00
82262;BME280;71861;52.364;6.580;2024-03-23T05:07:39;100876.25;;;3.49;100.00
82262;BME280;71861;52.364;6.580;2024-03-23T05:10:07;100879.88;;;3.47;100.00
82262;BME280;71861;52.364;6.580;2024-03-23T05:12:35;100872.16;;;3.47;100.00
82262;BME280;71861;52.364;6.580;2024-03-23T05:15:00;100867.13;;;3.45;100.00
82262;BME280;71861;52.364;6.580;2024-03-23T05:17:26;100875.53;;;3.47;100.00
82262;BME280;71861;52.364;6.580;2024-03-23T05:19:51;100875.53;;;3.47;100.00
82262;BME280;71861;52.364;6.580;2024-03-23T05:22:16;100880.66;;;3.47;100.00
82262;BME280;71861;52.364;6.580;2024-03-23T05:24:42;100870.63;;;3.44;100.00
82262;BME280;71861;52.364;6.580;2024-03-23T05:27:07;100873.91;;;3.46;100.00
82262;BME280;71861;52.364;6.580;2024-03-23T05:29:32;100872.16;;;3.47;100.00
82262;BME280;71861;52.364;6.580;2024-03-23T05:31:57;100880.88;;;3.44;100.00
82262;BME280;71861;52.364;6.580;2024-03-23T05:34:23;100874.94;;;3.43;100.00
82262;BME280;71861;52.364;6.580;2024-03-23T05:36:48;100875.63;;;3.45;100.00
82262;BME280;71861;52.364;6.580;2024-03-23T05:39:14;100877.53;;;3.43;100.00
82262;BME280;71861;52.364;6.580;2024-03-23T05:41:41;100882.78;;;3.42;100.00
82262;BME280;71861;52.364;6.580;2024-03-23T05:44:07;100882.78;;;3.42;100.00
82262;BME280;71861;52.364;6.580;2024-03-23T05:46:32;100878.66;;;3.39;100.00
82262;BME280;71861;52.364;6.580;2024-03-23T05:49:01;100884.41;;;3.43;100.00
82262;BME280;71861;52.364;6.580;2024-03-23T05:51:27;100874.13;;;3.43;100.00
82262;BME280;71861;52.364;6.580;2024-03-23T05:53:52;100870.63;;;3.44;100.00
82262;BME280;71861;52.364;6.580;2024-03-23T05:56:19;100874.84;;;3.45;100.00
82262;BME280;71861;52.364;6.580;2024-03-23T05:58:45;100882.31;;;3.48;100.00
82262;BME280;71861;52.364;6.580;2024-03-23T06:01:11;100878.59;;;3.52;100.00
82262;BME280;71861;52.364;6.580;2024-03-23T06:03:37;100879.06;;;3.57;100.00
82262;BME280;71861;52.364;6.580;2024-03-23T06:06:03;100874.66;;;3.59;100.00
82262;BME280;71861;52.364;6.580;2024-03-23T06:08:29;100869.41;;;3.61;100.00
82262;BME280;71861;52.364;6.580;2024-03-23T06:10:54;100866.59;;;3.64;100.00
82262;BME280;71861;52.364;6.580;2024-03-23T06:13:20;100874.78;;;3.69;100.00
82262;BME280;71861;52.364;6.580;2024-03-23T06:15:46;100872.81;;;3.72;100.00
82262;BME280;71861;52.364;6.580;2024-03-23T06:18:11;100883.56;;;3.77;100.00
82262;BME280;71861;52.364;6.580;2024-03-23T06:20:37;100883.34;;;3.80;100.00
82262;BME280;71861;52.364;6.580;2024-03-23T06:23:02;100877.84;;;3.85;100.00
82262;BME280;71861;52.364;6.580;2024-03-23T06:25:29;100881.50;;;3.93;100.00
82262;BME280;71861;52.364;6.580;2024-03-23T06:27:54;100885.63;;;4.07;100.00
82262;BME280;71861;52.364;6.580;2024-03-23T06:30:20;100879.41;;;4.20;100.00
82262;BME280;71861;52.364;6.580;2024-03-23T06:32:45;100888.19;;;4.29;100.00
82262;BME280;71861;52.364;6.580;2024-03-23T06:35:10;100885.28;;;4.33;100.00
82262;BME280;71861;52.364;6.580;2024-03-23T06:37:36;100884.34;;;4.34;100.00
82262;BME280;71861;52.364;6.580;2024-03-23T06:40:01;100886.56;;;4.39;100.00
82262;BME280;71861;52.364;6.580;2024-03-23T06:42:26;100880.13;;;4.44;100.00
82262;BME280;71861;52.364;6.580;2024-03-23T06:44:52;100883.28;;;4.59;100.00
82262;BME280;71861;52.364;6.580;2024-03-23T06:47:17;100881.97;;;4.75;100.00
82262;BME280;71861;52.364;6.580;2024-03-23T06:49:42;100883.44;;;4.89;100.00
82262;BME280;71861;52.364;6.580;2024-03-23T06:52:08;100886.59;;;5.03;100.00
82262;BME280;71861;52.364;6.580;2024-03-23T06:54:33;100886.31;;;5.18;100.00
82262;BME280;71861;52.364;6.580;2024-03-23T06:56:58;100887.91;;;5.30;100.00
82262;BME280;71861;52.364;6.580;2024-03-23T06:59:23;100900.38;;;5.45;100.00
82262;BME280;71861;52.364;6.580;2024-03-23T07:01:49;100902.03;;;5.67;100.00
82262;BME280;71861;52.364;6.580;2024-03-23T07:04:15;100895.59;;;5.93;100.00
82262;BME280;71861;52.364;6.580;2024-03-23T07:06:44;100895.19;;;6.18;100.00
82262;BME280;71861;52.364;6.580;2024-03-23T07:09:09;100898.22;;;6.23;100.00
82262;BME280;71861;52.364;6.580;2024-03-23T07:11:35;100892.75;;;6.16;100.00
82262;BME280;71861;52.364;6.580;2024-03-23T07:14:00;100896.75;;;6.09;100.00
82262;BME280;71861;52.364;6.580;2024-03-23T07:16:29;100891.69;;;5.98;100.00
82262;BME280;71861;52.364;6.580;2024-03-23T07:18:55;100900.16;;;5.89;100.00
82262;BME280;71861;52.364;6.580;2024-03-23T07:21:20;100884.41;;;5.83;100.00
82262;BME280;71861;52.364;6.580;2024-03-23T07:23:46;100881.47;;;5.76;100.00
82262;BME280;71861;52.364;6.580;2024-03-23T07:26:11;100884.56;;;5.70;100.00
82262;BME280;71861;52.364;6.580;2024-03-23T07:28:37;100864.69;;;5.61;100.00
82262;BME280;71861;52.364;6.580;2024-03-23T07:31:13;100879.09;;;5.64;100.00
82262;BME280;71861;52.364;6.580;2024-03-23T07:33:44;100882.91;;;5.69;100.00
82262;BME280;71861;52.364;6.580;2024-03-23T07:36:10;100888.63;;;5.73;100.00
82262;BME280;71861;52.364;6.580;2024-03-23T07:38:35;100874.78;;;5.74;100.00
82262;BME280;71861;52.364;6.580;2024-03-23T07:43:29;100868.94;;;5.83;100.00
82262;BME280;71861;52.364;6.580;2024-03-23T07:45:54;100873.84;;;5.86;100.00
82262;BME280;71861;52.364;6.580;2024-03-23T07:48:22;100873.06;;;5.95;100.00
82262;BME280;71861;52.364;6.580;2024-03-23T07:51:05;100870.94;;;6.00;100.00
82262;BME280;71861;52.364;6.580;2024-03-23T07:53:32;100875.41;;;5.98;100.00
82262;BME280;71861;52.364;6.580;2024-03-23T07:56:02;100877.28;;;5.96;100.00
82262;BME280;71861;52.364;6.580;2024-03-23T07:58:28;100867.34;;;5.91;100.00
82262;BME280;71861;52.364;6.580;2024-03-23T08:00:54;100875.78;;;5.93;100.00
82262;BME280;71861;52.364;6.580;2024-03-23T08:03:20;100865.78;;;6.00;100.00
82262;BME280;71861;52.364;6.580;2024-03-23T08:05:46;100871.84;;;6.19;100.00
82262;BME280;71861;52.364;6.580;2024-03-23T08:08:12;100852.75;;;6.31;100.00
82262;BME280;71861;52.364;6.580;2024-03-23T08:10:47;100873.84;;;6.95;100.00
82262;BME280;71861;52.364;6.580;2024-03-23T08:13:12;100863.66;;;7.51;100.00
82262;BME280;71861;52.364;6.580;2024-03-23T08:15:37;100864.91;;;8.02;100.00
82262;BME280;71861;52.364;6.580;2024-03-23T08:18:03;100867.78;;;8.45;100.00
82262;BME280;71861;52.364;6.580;2024-03-23T08:20:30;100864.03;;;8.85;100.00
82262;BME280;71861;52.364;6.580;2024-03-23T08:22:55;100867.25;;;9.31;99.88
82262;BME280;71861;52.364;6.580;2024-03-23T08:25:20;100870.56;;;9.84;99.60
82262;BME280;71861;52.364;6.580;2024-03-23T08:27:46;100870.06;;;9.81;93.17
82262;BME280;71861;52.364;6.580;2024-03-23T08:30:11;100867.72;;;9.70;92.32
82262;BME280;71861;52.364;6.580;2024-03-23T08:32:37;100872.47;;;9.57;92.26
82262;BME280;71861;52.364;6.580;2024-03-23T08:35:02;100867.44;;;9.38;91.51
82262;BME280;71861;52.364;6.580;2024-03-23T08:37:27;100869.19;;;9.29;91.15
82262;BME280;71861;52.364;6.580;2024-03-23T08:39:53;100870.84;;;9.21;94.13
82262;BME280;71861;52.364;6.580;2024-03-23T08:42:18;100862.66;;;9.08;92.70
82262;BME280;71861;52.364;6.580;2024-03-23T08:44:43;100869.16;;;9.12;92.84
82262;BME280;71861;52.364;6.580;2024-03-23T08:47:11;100855.47;;;9.02;92.61
82262;BME280;71861;52.364;6.580;2024-03-23T08:49:37;100865.75;;;8.94;91.36
82262;BME280;71861;52.364;6.580;2024-03-23T08:52:02;100859.72;;;8.76;91.08
82262;BME280;71861;52.364;6.580;2024-03-23T08:54:27;100863.06;;;8.68;93.92
82262;BME280;71861;52.364;6.580;2024-03-23T08:56:54;100860.53;;;8.76;94.92
82262;BME280;71861;52.364;6.580;2024-03-23T08:59:19;100853.69;;;8.85;90.90
82262;BME280;71861;52.364;6.580;2024-03-23T09:01:45;100855.69;;;9.08;92.59
82262;BME280;71861;52.364;6.580;2024-03-23T09:04:10;100848.84;;;9.85;94.16
82262;BME280;71861;52.364;6.580;2024-03-23T09:06:36;100843.63;;;10.29;88.24
82262;BME280;71861;52.364;6.580;2024-03-23T09:09:01;100846.53;;;10.34;84.65
82262;BME280;71861;52.364;6.580;2024-03-23T09:11:27;100848.50;;;10.32;84.71
82262;BME280;71861;52.364;6.580;2024-03-23T09:13:52;100840.84;;;10.30;85.57
82262;BME280;71861;52.364;6.580;2024-03-23T09:16:17;100834.59;;;10.15;83.92
82262;BME280;71861;52.364;6.580;2024-03-23T09:18:43;100846.84;;;10.05;85.45
82262;BME280;71861;52.364;6.580;2024-03-23T09:21:12;100847.78;;;9.96;84.91
82262;BME280;71861;52.364;6.580;2024-03-23T09:23:43;100851.09;;;9.37;81.36
82262;BME280;71861;52.364;6.580;2024-03-23T09:26:08;100872.84;;;8.92;84.48
82262;BME280;71861;52.364;6.580;2024-03-23T09:28:34;100860.59;;;8.39;82.91
82262;BME280;71861;52.364;6.580;2024-03-23T09:31:03;100878.56;;;7.95;84.61
82262;BME280;71861;52.364;6.580;2024-03-23T09:33:28;100853.97;;;7.62;85.06
82262;BME280;71861;52.364;6.580;2024-03-23T09:35:55;100862.84;;;7.50;86.68
82262;BME280;71861;52.364;6.580;2024-03-23T09:38:22;100851.25;;;7.73;90.60
82262;BME280;71861;52.364;6.580;2024-03-23T09:40:50;100844.16;;;8.21;90.77
82262;BME280;71861;52.364;6.580;2024-03-23T09:43:18;100843.84;;;9.06;91.83
82262;BME280;71861;52.364;6.580;2024-03-23T09:45:44;100838.09;;;10.06;91.73
82262;BME280;71861;52.364;6.580;2024-03-23T09:48:10;100829.69;;;11.03;88.17
82262;BME280;71861;52.364;6.580;2024-03-23T09:50:40;100820.09;;;11.68;82.17
82262;BME280;71861;52.364;6.580;2024-03-23T09:53:10;100807.59;;;11.63;78.93
82262;BME280;71861;52.364;6.580;2024-03-23T09:55:43;100820.13;;;11.36;79.02
82262;BME280;71861;52.364;6.580;2024-03-23T09:58:14;100817.78;;;10.85;80.79
82262;BME280;71861;52.364;6.580;2024-03-23T10:00:40;100814.91;;;10.38;79.67
82262;BME280;71861;52.364;6.580;2024-03-23T10:03:05;100817.91;;;9.92;77.76
82262;BME280;71861;52.364;6.580;2024-03-23T10:05:32;100813.97;;;9.62;78.10
82262;BME280;71861;52.364;6.580;2024-03-23T10:07:59;100811.34;;;9.54;79.06
82262;BME280;71861;52.364;6.580;2024-03-23T10:10:25;100814.16;;;9.86;81.62
82262;BME280;71861;52.364;6.580;2024-03-23T10:12:51;100811.00;;;10.34;80.96
82262;BME280;71861;52.364;6.580;2024-03-23T10:15:21;100812.72;;;10.67;80.69
82262;BME280;71861;52.364;6.580;2024-03-23T10:17:47;100799.94;;;11.14;81.71
82262;BME280;71861;52.364;6.580;2024-03-23T10:20:13;100795.03;;;11.59;72.55
82262;BME280;71861;52.364;6.580;2024-03-23T10:22:43;100807.31;;;12.05;71.17
82262;BME280;71861;52.364;6.580;2024-03-23T10:25:10;100810.50;;;12.62;70.10
82262;BME280;71861;52.364;6.580;2024-03-23T10:27:36;100796.81;;;12.90;65.51
82262;BME280;71861;52.364;6.580;2024-03-23T10:30:09;100809.34;;;13.17;67.76
82262;BME280;71861;52.364;6.580;2024-03-23T10:32:35;100822.78;;;12.76;62.01
82262;BME280;71861;52.364;6.580;2024-03-23T10:35:19;100827.91;;;11.76;64.77
82262;BME280;71861;52.364;6.580;2024-03-23T10:37:48;100859.78;;;10.56;67.49
82262;BME280;71861;52.364;6.580;2024-03-23T10:40:17;100859.88;;;9.62;72.72
82262;BME280;71861;52.364;6.580;2024-03-23T10:42:44;100838.88;;;8.77;75.65
82262;BME280;71861;52.364;6.580;2024-03-23T10:45:09;100831.34;;;8.20;78.54
82262;BME280;71861;52.364;6.580;2024-03-23T10:47:36;100839.13;;;7.83;81.37
82262;BME280;71861;52.364;6.580;2024-03-23T10:50:04;100844.31;;;7.55;83.47
82262;BME280;71861;52.364;6.580;2024-03-23T10:52:31;100837.81;;;7.32;85.49
82262;BME280;71861;52.364;6.580;2024-03-23T10:54:57;100837.81;;;7.41;87.36
82262;BME280;71861;52.364;6.580;2024-03-23T10:57:29;100816.00;;;7.63;86.64
82262;BME280;71861;52.364;6.580;2024-03-23T10:59:57;100832.28;;;8.28;88.42
82262;BME280;71861;52.364;6.580;2024-03-23T11:02:22;100836.97;;;9.14;87.70
82262;BME280;71861;52.364;6.580;2024-03-23T11:04:48;100834.97;;;9.94;86.63
82262;BME280;71861;52.364;6.580;2024-03-23T11:09:54;100827.91;;;11.04;79.80
82262;BME280;71861;52.364;6.580;2024-03-23T11:14:45;100833.13;;;10.46;74.75
82262;BME280;71861;52.364;6.580;2024-03-23T11:17:10;100835.31;;;9.74;74.90
82262;BME280;71861;52.364;6.580;2024-03-23T11:19:37;100847.69;;;9.02;77.45
82262;BME280;71861;52.364;6.580;2024-03-23T11:22:03;100841.50;;;8.40;80.31
82262;BME280;71861;52.364;6.580;2024-03-23T11:24:28;100845.22;;;8.28;83.52
82262;BME280;71861;52.364;6.580;2024-03-23T11:26:54;100839.59;;;7.96;84.31
82262;BME280;71861;52.364;6.580;2024-03-23T11:29:19;100839.13;;;7.74;86.55
82262;BME280;71861;52.364;6.580;2024-03-23T11:31:48;100849.78;;;7.42;86.79
82262;BME280;71861;52.364;6.580;2024-03-23T11:34:17;100844.22;;;7.18;88.25
82262;BME280;71861;52.364;6.580;2024-03-23T11:36:43;100850.19;;;7.00;89.21
82262;BME280;71861;52.364;6.580;2024-03-23T11:39:16;100843.66;;;6.86;90.68
82262;BME280;71861;52.364;6.580;2024-03-23T11:41:48;100836.19;;;7.12;93.19
82262;BME280;71861;52.364;6.580;2024-03-23T11:44:25;100828.78;;;7.83;93.32
82262;BME280;71861;52.364;6.580;2024-03-23T11:46:51;100828.84;;;8.65;92.11
82262;BME280;71861;52.364;6.580;2024-03-23T11:49:28;100818.22;;;9.20;87.58
82262;BME280;71861;52.364;6.580;2024-03-23T11:51:55;100805.16;;;9.73;84.23
82262;BME280;71861;52.364;6.580;2024-03-23T11:54:24;100811.00;;;10.34;84.18
82262;BME280;71861;52.364;6.580;2024-03-23T11:57:01;100795.72;;;10.89;80.80
82262;BME280;71861;52.364;6.580;2024-03-23T11:59:41;100798.00;;;11.24;76.26
82262;BME280;71861;52.364;6.580;2024-03-23T12:02:08;100784.84;;;11.33;75.41
82262;BME280;71861;52.364;6.580;2024-03-23T12:04:34;100791.00;;;11.64;75.09
82262;BME280;71861;52.364;6.580;2024-03-23T12:09:34;100777.84;;;12.13;74.96
82262;BME280;71861;52.364;6.580;2024-03-23T12:12:08;100785.66;;;12.13;72.58
82262;BME280;71861;52.364;6.580;2024-03-23T12:14:33;100794.25;;;11.74;71.66
82262;BME280;71861;52.364;6.580;2024-03-23T12:17:13;100844.31;;;10.96;68.38
82262;BME280;71861;52.364;6.580;2024-03-23T12:19:39;100848.06;;;9.67;72.86
82262;BME280;71861;52.364;6.580;2024-03-23T12:22:05;100852.31;;;8.81;76.74
82262;BME280;71861;52.364;6.580;2024-03-23T12:24:32;100838.63;;;7.97;79.71
82262;BME280;71861;52.364;6.580;2024-03-23T12:27:00;100815.75;;;7.37;82.93
82262;BME280;71861;52.364;6.580;2024-03-23T12:29:28;100817.03;;;7.05;85.30
82262;BME280;71861;52.364;6.580;2024-03-23T12:31:53;100793.44;;;7.46;88.07
82262;BME280;71861;52.364;6.580;2024-03-23T12:34:18;100789.09;;;8.02;88.78
82262;BME280;71861;52.364;6.580;2024-03-23T12:36:43;100790.63;;;8.49;86.11
82262;BME280;71861;52.364;6.580;2024-03-23T12:39:09;100782.06;;;9.01;84.26
82262;BME280;71861;52.364;6.580;2024-03-23T12:41:34;100777.09;;;9.08;80.91
82262;BME280;71861;52.364;6.580;2024-03-23T12:43:59;100779.19;;;9.22;82.32
82262;BME280;71861;52.364;6.580;2024-03-23T12:46:25;100782.69;;;9.89;83.34
82262;BME280;71861;52.364;6.580;2024-03-23T12:48:50;100764.00;;;10.69;79.40
82262;BME280;71861;52.364;6.580;2024-03-23T12:51:15;100761.25;;;11.27;78.57
82262;BME280;71861;52.364;6.580;2024-03-23T12:53:40;100763.31;;;11.55;73.52
82262;BME280;71861;52.364;6.580;2024-03-23T12:56:06;100760.84;;;11.86;76.07
82262;BME280;71861;52.364;6.580;2024-03-23T12:58:31;100764.59;;;11.84;73.71
82262;BME280;71861;52.364;6.580;2024-03-23T13:00:58;100765.63;;;11.66;72.38
82262;BME280;71861;52.364;6.580;2024-03-23T13:03:23;100781.56;;;11.23;72.63
82262;BME280;71861;52.364;6.580;2024-03-23T13:05:52;100767.28;;;11.19;75.27
82262;BME280;71861;52.364;6.580;2024-03-23T13:08:17;100751.94;;;11.64;72.58
82262;BME280;71861;52.364;6.580;2024-03-23T13:10:42;100761.28;;;11.98;71.01
82262;BME280;71861;52.364;6.580;2024-03-23T13:13:08;100755.53;;;12.18;67.39
82262;BME280;71861;52.364;6.580;2024-03-23T13:15:33;100753.63;;;12.35;70.83
82262;BME280;71861;52.364;6.580;2024-03-23T13:17:58;100749.91;;;12.60;67.76
82262;BME280;71861;52.364;6.580;2024-03-23T13:20:24;100758.00;;;12.42;67.77
82262;BME280;71861;52.364;6.580;2024-03-23T13:22:49;100743.66;;;12.08;65.55
82262;BME280;71861;52.364;6.580;2024-03-23T13:25:16;100752.41;;;12.23;67.60
82262;BME280;71861;52.364;6.580;2024-03-23T13:27:43;100747.00;;;12.55;66.01
82262;BME280;71861;52.364;6.580;2024-03-23T13:30:09;100743.88;;;12.82;66.95
82262;BME280;71861;52.364;6.580;2024-03-23T13:32:35;100736.41;;;13.24;63.24
82262;BME280;71861;52.364;6.580;2024-03-23T13:35:00;100736.63;;;13.66;64.18
82262;BME280;71861;52.364;6.580;2024-03-23T13:37:26;100734.38;;;13.63;59.96
82262;BME280;71861;52.364;6.580;2024-03-23T13:39:51;100727.13;;;13.36;62.04
82262;BME280;71861;52.364;6.580;2024-03-23T13:42:17;100734.03;;;12.69;59.95
82262;BME280;71861;52.364;6.580;2024-03-23T13:44:43;100739.06;;;12.18;58.41
82262;BME280;71861;52.364;6.580;2024-03-23T13:47:08;100736.03;;;11.51;60.78
82262;BME280;71861;52.364;6.580;2024-03-23T13:49:33;100748.91;;;11.13;62.12
82262;BME280;71861;52.364;6.580;2024-03-23T13:51:59;100743.22;;;10.77;62.56
82262;BME280;71861;52.364;6.580;2024-03-23T13:54:27;100751.75;;;10.46;64.80
82262;BME280;71861;52.364;6.580;2024-03-23T13:56:54;100766.22;;;10.06;65.86
82262;BME280;71861;52.364;6.580;2024-03-23T13:59:20;100760.75;;;9.84;66.25
82262;BME280;71861;52.364;6.580;2024-03-23T14:01:46;100747.50;;;9.61;67.42
82262;BME280;71861;52.364;6.580;2024-03-23T14:04:12;100762.53;;;9.50;67.95
82262;BME280;71861;52.364;6.580;2024-03-23T14:06:37;100803.59;;;9.37;70.79
82262;BME280;71861;52.364;6.580;2024-03-23T14:09:03;100790.94;;;9.16;70.53
82262;BME280;71861;52.364;6.580;2024-03-23T14:11:29;100773.53;;;9.09;70.89
82262;BME280;71861;52.364;6.580;2024-03-23T14:13:54;100779.19;;;8.87;72.17
82262;BME280;71861;52.364;6.580;2024-03-23T14:16:19;100792.66;;;8.73;73.98
82262;BME280;71861;52.364;6.580;2024-03-23T14:18:48;100788.00;;;8.59;75.68
82262;BME280;71861;52.364;6.580;2024-03-23T14:21:13;100779.16;;;8.52;74.17
82262;BME280;71861;52.364;6.580;2024-03-23T14:23:38;100774.66;;;8.54;74.63
82262;BME280;71861;52.364;6.580;2024-03-23T14:26:06;100772.16;;;8.62;76.39
82262;BME280;71861;52.364;6.580;2024-03-23T14:28:31;100747.50;;;8.58;74.16
82262;BME280;71861;52.364;6.580;2024-03-23T14:30:57;100750.91;;;8.76;73.79
82262;BME280;71861;52.364;6.580;2024-03-23T14:33:22;100749.94;;;8.94;72.52
82262;BME280;71861;52.364;6.580;2024-03-23T14:35:55;100748.44;;;9.09;69.16
82262;BME280;71861;52.364;6.580;2024-03-23T14:38:22;100747.03;;;9.15;69.44
82262;BME280;71861;52.364;6.580;2024-03-23T14:40:47;100745.09;;;9.17;68.19
82262;BME280;71861;52.364;6.580;2024-03-23T14:43:13;100740.88;;;9.16;67.37
82262;BME280;71861;52.364;6.580;2024-03-23T14:48:34;100745.78;;;9.19;67.14
82262;BME280;71861;52.364;6.580;2024-03-23T14:51:00;100723.03;;;9.13;64.63
82262;BME280;71861;52.364;6.580;2024-03-23T14:53:26;100742.97;;;9.12;65.10
82262;BME280;71861;52.364;6.580;2024-03-23T14:55:55;100748.59;;;9.08;65.15
82262;BME280;71861;52.364;6.580;2024-03-23T14:58:20;100732.09;;;8.91;66.67
82262;BME280;71861;52.364;6.580;2024-03-23T15:00:46;100756.16;;;9.01;67.95
82262;BME280;71861;52.364;6.580;2024-03-23T15:03:11;100740.44;;;9.03;67.01
82262;BME280;71861;52.364;6.580;2024-03-23T15:05:36;100737.34;;;8.99;67.21
82262;BME280;71861;52.364;6.580;2024-03-23T15:08:02;100732.97;;;9.00;66.35
82262;BME280;71861;52.364;6.580;2024-03-23T15:10:28;100735.19;;;8.95;68.12
82262;BME280;71861;52.364;6.580;2024-03-23T15:12:53;100721.44;;;8.77;67.47
82262;BME280;71861;52.364;6.580;2024-03-23T15:15:19;100724.09;;;8.67;67.68
82262;BME280;71861;52.364;6.580;2024-03-23T15:17:44;100722.19;;;8.52;68.28
82262;BME280;71861;52.364;6.580;2024-03-23T15:20:10;100725.84;;;8.31;67.14
82262;BME280;71861;52.364;6.580;2024-03-23T15:22:38;100740.50;;;8.13;67.71
82262;BME280;71861;52.364;6.580;2024-03-23T15:25:04;100748.06;;;7.97;69.46
82262;BME280;71861;52.364;6.580;2024-03-23T15:27:29;100727.78;;;7.75;69.40
82262;BME280;71861;52.364;6.580;2024-03-23T15:29:56;100734.72;;;7.65;70.81
82262;BME280;71861;52.364;6.580;2024-03-23T15:32:22;100723.44;;;7.66;71.72
82262;BME280;71861;52.364;6.580;2024-03-23T15:34:48;100723.16;;;7.69;72.42
82262;BME280;71861;52.364;6.580;2024-03-23T15:37:13;100732.09;;;7.84;72.77
82262;BME280;71861;52.364;6.580;2024-03-23T15:39:39;100714.25;;;7.81;73.29
82262;BME280;71861;52.364;6.580;2024-03-23T15:42:05;100733.91;;;8.01;73.59
82262;BME280;71861;52.364;6.580;2024-03-23T15:44:30;100722.44;;;8.04;73.54
82262;BME280;71861;52.364;6.580;2024-03-23T15:46:56;100723.94;;;8.06;73.01
82262;BME280;71861;52.364;6.580;2024-03-23T15:49:21;100725.44;;;8.09;73.07
82262;BME280;71861;52.364;6.580;2024-03-23T15:51:46;100703.91;;;8.08;74.14
82262;BME280;71861;52.364;6.580;2024-03-23T15:54:11;100708.88;;;8.02;74.26
82262;BME280;71861;52.364;6.580;2024-03-23T15:56:37;100713.78;;;7.95;73.98
82262;BME280;71861;52.364;6.580;2024-03-23T15:59:02;100711.13;;;7.78;74.64
82262;BME280;71861;52.364;6.580;2024-03-23T16:01:32;100718.78;;;7.70;75.55
82262;BME280;71861;52.364;6.580;2024-03-23T16:03:59;100725.91;;;7.58;74.26
82262;BME280;71861;52.364;6.580;2024-03-23T16:06:25;100717.38;;;7.48;76.23
82262;BME280;71861;52.364;6.580;2024-03-23T16:08:51;100720.50;;;7.42;76.38
82262;BME280;71861;52.364;6.580;2024-03-23T16:11:17;100708.81;;;7.48;76.39
82262;BME280;71861;52.364;6.580;2024-03-23T16:16:15;100711.31;;;7.67;74.98
82262;BME280;71861;52.364;6.580;2024-03-23T16:18:41;100703.28;;;7.70;75.07
82262;BME280;71861;52.364;6.580;2024-03-23T16:21:07;100703.13;;;7.71;74.33
82262;BME280;71861;52.364;6.580;2024-03-23T16:23:33;100699.50;;;7.64;72.19
82262;BME280;71861;52.364;6.580;2024-03-23T16:25:59;100703.59;;;7.57;73.48
82262;BME280;71861;52.364;6.580;2024-03-23T16:28:27;100704.69;;;7.55;73.41
82262;BME280;71861;52.364;6.580;2024-03-23T16:30:57;100702.25;;;7.53;73.51
82262;BME280;71861;52.364;6.580;2024-03-23T16:33:23;100709.59;;;7.48;73.91
82262;BME280;71861;52.364;6.580;2024-03-23T16:36:02;100711.53;;;7.46;74.95
82262;BME280;71861;52.364;6.580;2024-03-23T16:38:31;100708.69;;;7.40;74.90
82262;BME280;71861;52.364;6.580;2024-03-23T16:41:09;100711.44;;;7.38;75.45
82262;BME280;71861;52.364;6.580;2024-03-23T16:43:36;100721.19;;;7.44;75.95
82262;BME280;71861;52.364;6.580;2024-03-23T16:46:03;100715.22;;;7.44;75.93
82262;BME280;71861;52.364;6.580;2024-03-23T16:48:30;100722.97;;;7.44;76.40
82262;BME280;71861;52.364;6.580;2024-03-23T16:51:00;100731.97;;;7.40;77.26
82262;BME280;71861;52.364;6.580;2024-03-23T16:53:26;100720.69;;;7.31;77.78
82262;BME280;71861;52.364;6.580;2024-03-23T16:55:59;100718.28;;;7.20;77.67
82262;BME280;71861;52.364;6.580;2024-03-23T16:58:32;100711.88;;;7.05;77.99
82262;BME280;71861;52.364;6.580;2024-03-23T17:01:11;100717.47;;;6.91;78.43
82262;BME280;71861;52.364;6.580;2024-03-23T17:03:46;100706.75;;;6.76;79.22
82262;BME280;71861;52.364;6.580;2024-03-23T17:06:13;100703.22;;;6.68;80.07
82262;BME280;71861;52.364;6.580;2024-03-23T17:08:40;100703.75;;;6.62;80.24